Teno — A8VP7 — position and weather

sailwx.info

Track history (hours):
 
Tides and Currents Weather Stations Pressure Air Temp Water Temp Dewpoint Dewpoint Depression Visibility Wind Speed Wind Dir Waves Ship Positions

Teno

Last reported at 2017-Nov-22 21:50 UTC. Time now 2017-Nov-22 22:09 UTC.
Position N 35°57' W 005°32'.

Length 299 m; draft 12.7 m.

Type: Ship (hazmat cat A). MMSI: 636014646.

Date/timePositionNaut miles runAvg speedWind from/ knotsBaromVisibWave heightAir tempDewpointWater temp
2017-Nov-22 21:50N 35°57' W 005°32'2 6.4
2017-Nov-22 21:30N 35°59' W 005°31'5 9.7
2017-Nov-22 21:00N 35°60' W 005°25'714.2
2017-Nov-22 20:30N 36°01' W 005°17'612.0
2017-Nov-22 19:59N 35°59' W 005°09'  
2017-Nov-20 00:24N 36°40' E 014°04'715.5
2017-Nov-19 23:58N 36°37' E 014°11'715.5
2017-Nov-19 23:30N 36°33' E 014°19'815.4
2017-Nov-19 23:00N 36°29' E 014°27'815.5
2017-Nov-19 22:30N 36°26' E 014°36'815.6
2017-Nov-19 22:00N 36°22' E 014°44'815.7
2017-Nov-19 21:29N 36°18' E 014°53'  
2017-Nov-17 12:12N 31°08' E 032°19'2 8.6
2017-Nov-17 11:58N 31°06' E 032°18'4 9.4
2017-Nov-17 11:30N 31°02' E 032°19'510.2
2017-Nov-17 11:00N 30°56' E 032°19'510.0
2017-Nov-17 10:30N 30°51' E 032°19'13 9.6
2017-Nov-17 09:11N 30°39' E 032°21'14 7.2
2017-Nov-17 07:18N 30°25' E 032°22'2 8.2
2017-Nov-17 07:00N 30°23' E 032°22'4 7.9
2017-Nov-17 06:30N 30°19' E 032°24'  
Track history (hours):
 
Tides and Currents Weather Stations Pressure Air Temp Water Temp Dewpoint Dewpoint Depression Visibility Wind Speed Wind Dir Waves Ship Positions

Teno

Last reported at 2017-Nov-22 21:50 UTC. Time now 2017-Nov-22 22:09 UTC.
Position N 35°57' W 005°32'.

Length 299 m; draft 12.7 m.

Type: Ship (hazmat cat A). MMSI: 636014646.

Date/timePositionNaut miles runAvg speedWind from/ knotsBaromVisibWave heightAir tempDewpointWater temp
2017-Nov-22 21:50N 35°57' W 005°32'2 6.4
2017-Nov-22 21:30N 35°59' W 005°31'5 9.7
2017-Nov-22 21:00N 35°60' W 005°25'714.2
2017-Nov-22 20:30N 36°01' W 005°17'612.0
2017-Nov-22 19:59N 35°59' W 005°09'  
2017-Nov-20 00:24N 36°40' E 014°04'715.5
2017-Nov-19 23:58N 36°37' E 014°11'715.5
2017-Nov-19 23:30N 36°33' E 014°19'815.4
2017-Nov-19 23:00N 36°29' E 014°27'815.5
2017-Nov-19 22:30N 36°26' E 014°36'815.6
2017-Nov-19 22:00N 36°22' E 014°44'815.7
2017-Nov-19 21:29N 36°18' E 014°53'  
2017-Nov-17 12:12N 31°08' E 032°19'2 8.6
2017-Nov-17 11:58N 31°06' E 032°18'4 9.4
2017-Nov-17 11:30N 31°02' E 032°19'510.2
2017-Nov-17 11:00N 30°56' E 032°19'510.0
2017-Nov-17 10:30N 30°51' E 032°19'13 9.6
2017-Nov-17 09:11N 30°39' E 032°21'14 7.2
2017-Nov-17 07:18N 30°25' E 032°22'2 8.2
2017-Nov-17 07:00N 30°23' E 032°22'4 7.9
2017-Nov-17 06:30N 30°19' E 032°24'  

Dump ship's entire track history